Leisure, Indiana
Current Conditions -  °F | °C
As of 11:35 AM on Saturday 25 Oct 2014 (Local Time) from KMZZ Reporting Station
Clear Clear  
Wind Chill: 63°   Ceiling: Unl
Heat Index: 63°   Visibility: 7mi
Dew Point: 53°   Wind: 12mph
Humidity: 70%   Direction: 280°W
Pressure: 29.95"   Gusts: NA
Location:  40.3067°N, 85.834°W
Report Text: KMZZ 251535Z AUTO 28010KT 7SM CLR 17/12 A2995 RMK AO2 T01730117
Loading
Personal Weather Stations






























Interactive Weather Map
Tropical Storm Tracking
New forecast layout! Learn more

10-Day Weather Forecast

Advertisements
Track Severe Weather on mobile